createdAt,value
2017-10-27T00:00:16.600Z,0.00
2017-10-27T00:01:16.578Z,0.00
2017-10-27T00:02:16.592Z,0.00
2017-10-27T00:03:16.592Z,0.00
2017-10-27T00:04:16.639Z,0.00
2017-10-27T00:05:16.637Z,0.00
2017-10-27T00:06:16.629Z,0.00
2017-10-27T00:07:16.646Z,0.00
2017-10-27T00:08:16.657Z,0.00
2017-10-27T00:09:16.695Z,0.00
2017-10-27T00:10:16.666Z,0.00
2017-10-27T00:11:16.696Z,0.00
2017-10-27T00:12:16.680Z,0.00
2017-10-27T00:13:16.750Z,0.00
2017-10-27T00:14:16.723Z,0.00
2017-10-27T00:15:16.695Z,0.00
2017-10-27T00:16:16.709Z,0.00
2017-10-27T00:17:16.736Z,0.00
2017-10-27T00:18:16.741Z,0.00
2017-10-27T00:19:16.733Z,0.00
2017-10-27T00:20:16.746Z,0.00
2017-10-27T00:21:16.746Z,0.00
2017-10-27T00:22:16.780Z,0.00
2017-10-27T00:23:16.814Z,0.00
2017-10-27T00:24:16.798Z,0.00
2017-10-27T00:25:16.790Z,0.00
2017-10-27T00:26:16.802Z,0.00
2017-10-27T00:27:16.815Z,0.00
2017-10-27T00:28:16.826Z,0.00
2017-10-27T00:29:16.820Z,0.00
2017-10-27T00:30:16.843Z,0.00
2017-10-27T00:31:16.862Z,0.00
2017-10-27T00:32:16.855Z,0.00
2017-10-27T00:33:16.848Z,0.00
2017-10-27T00:34:16.858Z,0.00
2017-10-27T00:35:16.897Z,0.00
2017-10-27T00:36:16.904Z,0.00
2017-10-27T00:37:16.895Z,0.00
2017-10-27T00:38:16.935Z,0.00
2017-10-27T00:39:16.925Z,0.00
2017-10-27T00:40:16.899Z,0.00
2017-10-27T00:41:16.936Z,0.00
2017-10-27T00:42:16.981Z,0.00
2017-10-27T00:43:16.956Z,0.00
2017-10-27T00:44:16.949Z,0.00
2017-10-27T00:45:16.974Z,0.00
2017-10-27T00:46:16.986Z,0.00
2017-10-27T00:47:17.032Z,0.00
2017-10-27T00:48:16.980Z,0.00
2017-10-27T00:49:17.019Z,0.00
2017-10-27T00:50:17.011Z,0.00
2017-10-27T00:51:17.029Z,0.00
2017-10-27T00:52:17.037Z,0.00
2017-10-27T00:53:17.084Z,0.00
2017-10-27T00:54:17.039Z,0.00
2017-10-27T00:55:17.054Z,0.00
2017-10-27T00:56:17.114Z,0.00
2017-10-27T00:57:17.094Z,0.00
2017-10-27T00:58:17.069Z,0.00
2017-10-27T00:59:17.093Z,0.00
2017-10-27T01:00:17.129Z,0.00
2017-10-27T01:01:17.137Z,0.00
2017-10-27T01:02:17.125Z,0.00
2017-10-27T01:03:17.111Z,0.00
2017-10-27T01:04:17.150Z,0.00
2017-10-27T01:05:17.136Z,0.00
2017-10-27T01:06:17.183Z,0.00
2017-10-27T01:07:17.159Z,0.00
2017-10-27T01:08:17.163Z,0.00
2017-10-27T01:09:17.212Z,0.00
2017-10-27T01:10:17.169Z,0.00
2017-10-27T01:11:17.249Z,0.00
2017-10-27T01:12:17.190Z,0.00
2017-10-27T01:13:17.206Z,0.00
2017-10-27T01:14:17.222Z,0.00
2017-10-27T01:15:17.248Z,0.00
2017-10-27T01:16:17.270Z,0.00
2017-10-27T01:17:17.263Z,0.00
2017-10-27T01:18:17.245Z,0.00
2017-10-27T01:19:17.262Z,0.00
2017-10-27T01:20:17.316Z,0.00
2017-10-27T01:21:17.269Z,0.00
2017-10-27T01:22:17.283Z,0.00
2017-10-27T01:23:17.306Z,0.00
2017-10-27T01:24:17.324Z,0.00
2017-10-27T01:25:17.319Z,0.00
2017-10-27T01:26:17.388Z,0.00
2017-10-27T01:27:17.340Z,0.00
2017-10-27T01:28:17.352Z,0.00
2017-10-27T01:29:17.413Z,0.00
2017-10-27T01:30:17.354Z,0.00
2017-10-27T01:31:17.391Z,0.00
2017-10-27T01:32:17.377Z,0.00
2017-10-27T01:33:17.396Z,0.00
2017-10-27T01:34:17.411Z,0.00
2017-10-27T01:35:17.431Z,0.00
2017-10-27T01:36:17.407Z,0.00
2017-10-27T01:37:17.412Z,0.00
2017-10-27T01:38:17.437Z,0.00
2017-10-27T01:39:17.454Z,0.00
2017-10-27T01:40:17.449Z,0.00
2017-10-27T01:41:17.457Z,0.00
2017-10-27T01:42:17.484Z,0.00
2017-10-27T01:43:17.470Z,0.00
2017-10-27T01:44:17.475Z,0.00
2017-10-27T01:45:17.479Z,0.00
2017-10-27T01:46:17.503Z,0.00
2017-10-27T01:47:17.546Z,0.00
2017-10-27T01:48:17.525Z,0.00
2017-10-27T01:49:17.509Z,0.00
2017-10-27T01:50:17.535Z,0.00
2017-10-27T01:51:17.537Z,0.00
2017-10-27T01:52:17.543Z,0.00
2017-10-27T01:53:17.561Z,0.00
2017-10-27T01:54:17.570Z,0.00
2017-10-27T01:55:17.603Z,0.00
2017-10-27T01:56:17.616Z,0.00
2017-10-27T01:57:17.597Z,0.00
2017-10-27T01:58:17.600Z,0.00
2017-10-27T01:59:17.614Z,0.00
2017-10-27T02:00:17.627Z,0.00
2017-10-27T02:01:17.628Z,0.00
2017-10-27T02:02:17.627Z,0.00
2017-10-27T02:03:17.682Z,0.00
2017-10-27T02:04:17.656Z,0.00
2017-10-27T02:05:17.663Z,0.00
2017-10-27T02:06:17.689Z,0.00
2017-10-27T02:07:17.689Z,0.00
2017-10-27T02:08:17.710Z,0.00
2017-10-27T02:09:17.701Z,0.00
2017-10-27T02:10:17.719Z,0.00
2017-10-27T02:11:17.715Z,0.00
2017-10-27T02:12:17.730Z,0.00
2017-10-27T02:13:17.728Z,0.00
2017-10-27T02:14:17.807Z,0.00
2017-10-27T02:15:17.743Z,0.00
2017-10-27T02:16:17.760Z,0.00
2017-10-27T02:17:17.769Z,0.00
2017-10-27T02:18:17.794Z,0.00
2017-10-27T02:19:17.783Z,0.00
2017-10-27T02:20:17.834Z,0.00
2017-10-27T02:21:17.849Z,0.00
2017-10-27T02:22:17.821Z,0.00
2017-10-27T02:23:17.827Z,0.00
2017-10-27T02:24:17.878Z,0.00
2017-10-27T02:25:17.824Z,0.00
2017-10-27T02:26:17.878Z,0.00
2017-10-27T02:27:17.847Z,0.00
2017-10-27T02:28:17.899Z,0.00
2017-10-27T02:29:17.872Z,0.00
2017-10-27T02:30:17.881Z,0.00
2017-10-27T02:31:17.898Z,0.00
2017-10-27T02:32:17.935Z,0.00
2017-10-27T02:33:17.904Z,0.00
2017-10-27T02:34:17.921Z,0.00
2017-10-27T02:35:17.922Z,0.00
2017-10-27T02:36:17.923Z,0.00
2017-10-27T02:37:17.947Z,0.00
2017-10-27T02:38:17.969Z,0.00
2017-10-27T02:39:17.959Z,0.00
2017-10-27T02:40:17.963Z,0.00
2017-10-27T02:41:17.988Z,0.00
2017-10-27T02:42:18.025Z,0.00
2017-10-27T02:43:18.006Z,0.00
2017-10-27T02:44:18.011Z,0.00
2017-10-27T02:45:18.039Z,0.00
2017-10-27T02:46:18.025Z,0.00
2017-10-27T02:47:18.028Z,0.00
2017-10-27T02:48:18.045Z,0.00
2017-10-27T02:49:18.050Z,0.00
2017-10-27T02:50:18.063Z,0.00
2017-10-27T02:51:18.061Z,0.00
2017-10-27T02:52:18.052Z,0.00
2017-10-27T02:53:18.085Z,0.00
2017-10-27T02:54:18.112Z,0.00
2017-10-27T02:55:18.099Z,0.00
2017-10-27T02:56:18.083Z,0.00
2017-10-27T02:57:18.097Z,0.00
2017-10-27T02:58:18.127Z,0.00
2017-10-27T02:59:18.162Z,0.00
2017-10-27T03:00:18.127Z,0.00
2017-10-27T03:01:18.174Z,0.00
2017-10-27T03:02:18.179Z,0.00
2017-10-27T03:03:18.163Z,0.00
2017-10-27T03:04:18.156Z,0.00
2017-10-27T03:05:18.206Z,0.00
2017-10-27T03:06:18.198Z,0.00
2017-10-27T03:07:18.188Z,0.00
2017-10-27T03:08:18.198Z,0.00
2017-10-27T03:09:18.218Z,0.00
2017-10-27T03:10:18.222Z,0.00
2017-10-27T03:11:18.216Z,0.00
2017-10-27T03:12:18.229Z,0.00
2017-10-27T03:13:18.244Z,0.00
2017-10-27T03:14:18.260Z,0.00
2017-10-27T03:15:18.282Z,0.00
2017-10-27T03:16:18.273Z,0.00
2017-10-27T03:17:18.277Z,0.00
2017-10-27T03:18:18.290Z,0.00
2017-10-27T03:19:18.279Z,0.00
2017-10-27T03:20:18.335Z,0.00
2017-10-27T03:21:18.315Z,0.00
2017-10-27T03:22:18.320Z,0.00
2017-10-27T03:23:18.333Z,0.00
2017-10-27T03:24:18.346Z,0.00
2017-10-27T03:25:18.372Z,0.00
2017-10-27T03:26:18.395Z,0.00
2017-10-27T03:27:18.346Z,0.00
2017-10-27T03:28:18.372Z,0.00
2017-10-27T03:29:18.377Z,0.00
2017-10-27T03:30:18.393Z,0.00
2017-10-27T03:31:18.399Z,0.00
2017-10-27T03:32:18.402Z,0.00
2017-10-27T03:33:18.395Z,0.00
2017-10-27T03:34:18.421Z,0.00
2017-10-27T03:35:18.411Z,0.00
2017-10-27T03:36:18.429Z,0.00
2017-10-27T03:37:18.430Z,0.00
2017-10-27T03:38:18.437Z,0.00
2017-10-27T03:39:18.438Z,0.00
2017-10-27T03:40:18.481Z,0.00
2017-10-27T03:41:18.455Z,0.00
2017-10-27T03:42:18.470Z,0.00
2017-10-27T03:43:18.477Z,0.00
2017-10-27T03:44:18.505Z,0.00
2017-10-27T03:45:18.537Z,0.00
2017-10-27T03:46:18.496Z,0.00
2017-10-27T03:47:18.514Z,0.00
2017-10-27T03:48:18.541Z,0.00
2017-10-27T03:49:18.531Z,0.00
2017-10-27T03:50:18.550Z,0.00
2017-10-27T03:51:18.562Z,0.00
2017-10-27T03:52:18.575Z,0.00
2017-10-27T03:53:18.560Z,0.00
2017-10-27T03:54:18.563Z,0.00
2017-10-27T03:55:18.592Z,0.00
2017-10-27T03:56:18.586Z,0.00
2017-10-27T03:57:18.593Z,0.00
2017-10-27T03:58:18.626Z,0.00
2017-10-27T03:59:18.610Z,0.00
2017-10-27T04:00:18.615Z,0.00
2017-10-27T04:01:18.653Z,0.00
2017-10-27T04:02:18.667Z,0.00
2017-10-27T04:03:18.639Z,0.00
2017-10-27T04:04:18.662Z,0.00
2017-10-27T04:05:24.242Z,0.00
2017-10-27T04:06:18.679Z,0.00
2017-10-27T04:07:18.681Z,0.00
2017-10-27T04:08:18.686Z,0.00
2017-10-27T04:09:18.685Z,0.00
2017-10-27T04:10:18.711Z,0.00
2017-10-27T04:11:18.708Z,0.00
2017-10-27T04:12:18.726Z,0.00
2017-10-27T04:13:18.751Z,0.00
2017-10-27T04:14:18.739Z,0.00
2017-10-27T04:15:18.763Z,0.00
2017-10-27T04:16:18.733Z,0.00
2017-10-27T04:17:18.760Z,0.00
2017-10-27T04:18:18.781Z,0.00
2017-10-27T04:19:18.773Z,0.00
2017-10-27T04:20:18.796Z,0.00
2017-10-27T04:21:18.795Z,0.00
2017-10-27T04:22:18.813Z,0.00
2017-10-27T04:23:18.813Z,0.00
2017-10-27T04:24:18.832Z,0.00
2017-10-27T04:25:18.818Z,0.00
2017-10-27T04:26:18.831Z,0.00
2017-10-27T04:27:18.838Z,0.00
2017-10-27T04:28:18.869Z,0.00
2017-10-27T04:29:18.878Z,0.00
2017-10-27T04:30:18.874Z,0.00
2017-10-27T04:31:18.879Z,0.00
2017-10-27T04:32:18.928Z,0.00
2017-10-27T04:33:18.883Z,0.00
2017-10-27T04:34:18.892Z,0.00
2017-10-27T04:35:18.894Z,0.00
2017-10-27T04:36:18.951Z,0.00
2017-10-27T04:37:18.952Z,0.00
2017-10-27T04:38:18.949Z,0.00
2017-10-27T04:39:18.945Z,0.00
2017-10-27T04:40:18.949Z,0.00
2017-10-27T04:41:18.950Z,0.00
2017-10-27T04:42:18.979Z,0.00
2017-10-27T04:43:18.960Z,0.00
2017-10-27T04:44:18.979Z,0.00
2017-10-27T04:45:19.028Z,0.00
2017-10-27T04:46:18.997Z,0.00
2017-10-27T04:47:19.064Z,0.00
2017-10-27T04:48:19.015Z,0.00
2017-10-27T04:49:19.025Z,0.00
2017-10-27T04:50:19.020Z,0.00
2017-10-27T04:51:19.060Z,0.00
2017-10-27T04:52:19.054Z,0.00
2017-10-27T04:53:19.037Z,0.00
2017-10-27T04:54:19.067Z,0.00
2017-10-27T04:55:19.102Z,0.00
2017-10-27T04:56:19.086Z,0.00
2017-10-27T04:57:19.079Z,0.00
2017-10-27T04:58:19.097Z,0.00
2017-10-27T04:59:19.085Z,0.00
2017-10-27T05:00:19.114Z,0.00
2017-10-27T05:01:19.100Z,0.00
2017-10-27T05:02:19.113Z,0.00
2017-10-27T05:03:19.132Z,0.00
2017-10-27T05:04:19.137Z,0.00
2017-10-27T05:05:19.144Z,0.00
2017-10-27T05:06:19.180Z,0.00
2017-10-27T05:07:19.156Z,0.00
2017-10-27T05:08:19.161Z,0.00
2017-10-27T05:09:19.201Z,0.00
2017-10-27T05:10:19.212Z,0.00
2017-10-27T05:11:19.206Z,0.00
2017-10-27T05:12:19.193Z,0.00
2017-10-27T05:13:19.235Z,0.00
2017-10-27T05:14:19.224Z,0.00
2017-10-27T05:15:19.218Z,0.00
2017-10-27T05:16:19.230Z,0.00
2017-10-27T05:17:19.228Z,0.00
2017-10-27T05:18:19.277Z,0.00
2017-10-27T05:19:19.276Z,0.00
2017-10-27T05:20:19.282Z,0.00
2017-10-27T05:21:19.292Z,0.00
2017-10-27T05:22:19.274Z,0.00
2017-10-27T05:23:19.325Z,0.00
2017-10-27T05:24:19.331Z,0.00
2017-10-27T05:25:19.319Z,0.00
2017-10-27T05:26:19.313Z,0.00
2017-10-27T05:27:19.347Z,0.00
2017-10-27T05:28:19.326Z,0.00
2017-10-27T05:29:19.336Z,0.00
2017-10-27T05:30:19.357Z,0.00
2017-10-27T05:31:19.356Z,0.00
2017-10-27T05:32:19.396Z,0.00
2017-10-27T05:33:19.363Z,0.00
2017-10-27T05:34:19.388Z,0.00
2017-10-27T05:35:19.411Z,0.00
2017-10-27T05:36:19.389Z,0.00
2017-10-27T05:37:19.433Z,0.00
2017-10-27T05:38:19.429Z,0.00
2017-10-27T05:39:19.469Z,0.00
2017-10-27T05:40:19.425Z,0.00
2017-10-27T05:41:19.434Z,0.00
2017-10-27T05:42:19.480Z,0.00
2017-10-27T05:43:19.492Z,0.00
2017-10-27T05:44:19.488Z,0.00
2017-10-27T05:45:19.473Z,0.00
2017-10-27T05:46:19.481Z,0.00
2017-10-27T05:47:19.482Z,4.00
2017-10-27T05:48:19.513Z,4.00
2017-10-27T05:49:19.532Z,4.00
2017-10-27T05:50:19.508Z,0.00
2017-10-27T05:51:19.526Z,4.00
2017-10-27T05:52:19.532Z,8.00
2017-10-27T05:53:19.543Z,8.00
2017-10-27T05:54:19.580Z,8.00
2017-10-27T05:55:19.553Z,8.00
2017-10-27T05:56:19.583Z,4.00
2017-10-27T05:57:19.553Z,8.00
2017-10-27T05:58:19.559Z,12.00
2017-10-27T05:59:19.577Z,8.00
2017-10-27T06:00:19.595Z,4.00
2017-10-27T06:01:19.600Z,8.00
2017-10-27T06:02:19.593Z,8.00
2017-10-27T06:03:19.624Z,4.00
2017-10-27T06:04:19.633Z,12.00
2017-10-27T06:05:19.614Z,8.00
2017-10-27T06:06:19.638Z,16.00
2017-10-27T06:07:19.645Z,36.00
2017-10-27T06:08:19.664Z,32.00
2017-10-27T06:09:19.675Z,20.00
2017-10-27T06:10:19.665Z,16.00
2017-10-27T06:11:19.673Z,16.00
2017-10-27T06:12:19.671Z,28.00
2017-10-27T06:13:19.674Z,48.00
2017-10-27T06:14:19.689Z,52.00
2017-10-27T06:15:19.730Z,52.00
2017-10-27T06:16:19.708Z,48.00
2017-10-27T06:17:19.750Z,48.00
2017-10-27T06:18:19.740Z,48.00
2017-10-27T06:19:19.729Z,48.00
2017-10-27T06:20:19.747Z,48.00
2017-10-27T06:21:19.762Z,48.00
2017-10-27T06:22:19.760Z,64.00
2017-10-27T06:23:19.756Z,80.00
2017-10-27T06:24:19.764Z,92.00
2017-10-27T06:25:19.795Z,104.00
2017-10-27T06:26:19.830Z,100.00
2017-10-27T06:27:19.782Z,92.00
2017-10-27T06:28:19.821Z,84.00
2017-10-27T06:29:19.821Z,84.00
2017-10-27T06:30:19.820Z,84.00
2017-10-27T06:31:19.826Z,80.00
2017-10-27T06:32:19.842Z,80.00
2017-10-27T06:33:19.834Z,68.00
2017-10-27T06:34:19.902Z,72.00
2017-10-27T06:35:19.859Z,80.00
2017-10-27T06:36:19.846Z,92.00
2017-10-27T06:37:19.857Z,100.00
2017-10-27T06:38:19.863Z,108.00
2017-10-27T06:39:19.898Z,128.00
2017-10-27T06:40:19.879Z,156.00
2017-10-27T06:41:19.900Z,184.00
2017-10-27T06:42:19.924Z,216.00
2017-10-27T06:43:19.941Z,232.00
2017-10-27T06:44:19.927Z,220.00
2017-10-27T06:45:19.916Z,216.00
2017-10-27T06:46:19.910Z,268.00
2017-10-27T06:47:19.929Z,276.00
2017-10-27T06:48:19.944Z,348.00
2017-10-27T06:49:19.973Z,396.00
2017-10-27T06:50:20.011Z,492.00
2017-10-27T06:51:19.967Z,608.00
2017-10-27T06:52:19.968Z,700.00
2017-10-27T06:53:20.088Z,720.00
2017-10-27T06:54:19.997Z,772.00
2017-10-27T06:55:19.986Z,724.00
2017-10-27T06:56:19.999Z,716.00
2017-10-27T06:57:20.066Z,684.00
2017-10-27T06:58:20.015Z,544.00
2017-10-27T06:59:20.045Z,448.00
2017-10-27T07:00:20.038Z,440.00
2017-10-27T07:01:20.068Z,352.00
2017-10-27T07:02:20.026Z,252.00
2017-10-27T07:03:20.082Z,216.00
2017-10-27T07:04:20.080Z,204.00
2017-10-27T07:05:20.059Z,184.00
2017-10-27T07:06:20.067Z,172.00
2017-10-27T07:07:20.072Z,172.00
2017-10-27T07:08:20.074Z,172.00
2017-10-27T07:09:20.121Z,204.00
2017-10-27T07:10:20.122Z,260.00
2017-10-27T07:11:20.093Z,284.00
2017-10-27T07:12:20.139Z,308.00
2017-10-27T07:13:20.110Z,344.00
2017-10-27T07:14:20.125Z,356.00
2017-10-27T07:15:20.142Z,380.00
2017-10-27T07:16:20.141Z,424.00
2017-10-27T07:17:20.183Z,384.00
2017-10-27T07:18:20.137Z,300.00
2017-10-27T07:19:20.165Z,284.00
2017-10-27T07:20:20.167Z,308.00
2017-10-27T07:21:20.187Z,316.00
2017-10-27T07:22:20.198Z,324.00
2017-10-27T07:23:20.199Z,444.00
2017-10-27T07:24:20.190Z,504.00
2017-10-27T07:25:20.233Z,392.00
2017-10-27T07:26:20.225Z,300.00
2017-10-27T07:27:20.234Z,340.00
2017-10-27T07:28:20.211Z,412.00
2017-10-27T07:29:20.247Z,540.00
2017-10-27T07:30:20.276Z,604.00
2017-10-27T07:31:20.256Z,648.00
2017-10-27T07:32:20.237Z,692.00
2017-10-27T07:33:20.262Z,800.00
2017-10-27T07:34:20.312Z,784.00
2017-10-27T07:35:20.267Z,764.00
2017-10-27T07:36:20.300Z,792.00
2017-10-27T07:37:20.284Z,784.00
2017-10-27T07:38:20.298Z,912.00
2017-10-27T07:39:20.328Z,916.00
2017-10-27T07:40:20.400Z,900.00
2017-10-27T07:41:20.359Z,772.00
2017-10-27T07:42:20.816Z,812.00
2017-10-27T07:43:20.379Z,824.00
2017-10-27T07:44:20.348Z,860.00
2017-10-27T07:45:20.353Z,780.00
2017-10-27T07:46:20.347Z,824.00
2017-10-27T07:47:20.379Z,716.00
2017-10-27T07:48:20.386Z,516.00
2017-10-27T07:49:20.406Z,508.00
2017-10-27T07:50:20.378Z,492.00
2017-10-27T07:51:20.397Z,524.00
2017-10-27T07:52:20.403Z,720.00
2017-10-27T07:53:20.383Z,996.00
2017-10-27T07:54:20.438Z,1168.00
2017-10-27T07:55:20.419Z,1256.00
2017-10-27T07:56:20.412Z,1184.00
2017-10-27T07:57:20.447Z,1064.00
2017-10-27T07:58:20.436Z,1088.00
2017-10-27T07:59:20.439Z,1284.00
2017-10-27T08:00:20.484Z,1328.00
2017-10-27T08:01:20.456Z,1336.00
2017-10-27T08:02:20.497Z,1188.00
2017-10-27T08:03:20.454Z,1164.00
2017-10-27T08:04:20.460Z,1280.00
2017-10-27T08:05:20.479Z,1472.00
2017-10-27T08:06:20.496Z,1484.00
2017-10-27T08:07:20.501Z,1400.00
2017-10-27T08:08:20.499Z,1584.00
2017-10-27T08:09:20.508Z,1720.00
2017-10-27T08:10:20.517Z,1484.00
2017-10-27T08:11:20.530Z,1732.00
2017-10-27T08:12:20.566Z,1532.00
2017-10-27T08:13:20.557Z,1604.00
2017-10-27T08:14:20.573Z,1596.00
2017-10-27T08:15:20.552Z,1332.00
2017-10-27T08:16:20.569Z,1128.00
2017-10-27T08:17:20.571Z,1000.00
2017-10-27T08:18:20.551Z,1100.00
2017-10-27T08:19:20.588Z,1284.00
2017-10-27T08:20:20.606Z,1420.00
2017-10-27T08:21:20.571Z,1448.00
2017-10-27T08:22:20.584Z,1664.00
2017-10-27T08:23:20.606Z,1944.00
2017-10-27T08:24:20.626Z,1840.00
2017-10-27T08:25:20.651Z,1440.00
2017-10-27T08:26:20.614Z,1212.00
2017-10-27T08:27:20.631Z,1072.00
2017-10-27T08:28:20.635Z,1136.00
2017-10-27T08:29:20.647Z,1372.00
2017-10-27T08:30:20.659Z,1568.00
2017-10-27T08:31:20.694Z,1644.00
2017-10-27T08:32:20.647Z,1636.00
2017-10-27T08:33:20.696Z,1656.00
2017-10-27T08:34:20.678Z,1504.00
2017-10-27T08:35:20.670Z,1848.00
2017-10-27T08:36:20.681Z,2272.00
2017-10-27T08:37:20.721Z,2516.00
2017-10-27T08:38:20.698Z,2664.00
2017-10-27T08:39:20.693Z,2552.00
2017-10-27T08:40:20.763Z,2060.00
2017-10-27T08:41:20.766Z,1572.00
2017-10-27T08:42:20.756Z,1352.00
2017-10-27T08:43:20.724Z,1536.00
2017-10-27T08:44:20.761Z,2140.00
2017-10-27T08:45:20.775Z,2176.00
2017-10-27T08:46:20.761Z,1820.00
2017-10-27T08:47:20.747Z,1580.00
2017-10-27T08:48:20.765Z,1616.00
2017-10-27T08:49:20.793Z,1480.00
2017-10-27T08:50:20.792Z,1296.00
2017-10-27T08:51:20.789Z,1164.00
2017-10-27T08:52:20.801Z,1112.00
2017-10-27T08:53:20.818Z,1236.00
2017-10-27T08:54:20.829Z,1336.00
2017-10-27T08:55:20.843Z,1192.00
2017-10-27T08:56:20.819Z,1548.00
2017-10-27T08:57:20.831Z,2696.00
2017-10-27T08:58:20.850Z,2376.00
2017-10-27T08:59:20.842Z,2072.00
2017-10-27T09:00:20.838Z,2348.00
2017-10-27T09:01:20.866Z,2180.00
2017-10-27T09:02:20.912Z,1720.00
2017-10-27T09:03:20.898Z,1288.00
2017-10-27T09:04:20.950Z,2320.00
2017-10-27T09:05:20.919Z,3280.00
2017-10-27T09:06:20.931Z,3140.00
2017-10-27T09:07:20.948Z,3068.00
2017-10-27T09:08:20.952Z,3212.00
2017-10-27T09:09:20.911Z,3308.00
2017-10-27T09:10:20.928Z,3184.00
2017-10-27T09:11:20.929Z,2924.00
2017-10-27T09:12:20.943Z,2576.00
2017-10-27T09:13:20.950Z,2528.00
2017-10-27T09:14:20.975Z,4396.00
2017-10-27T09:15:20.967Z,4104.00
2017-10-27T09:16:20.956Z,3256.00
2017-10-27T09:17:20.992Z,2572.00
2017-10-27T09:18:20.992Z,2784.00
2017-10-27T09:19:21.010Z,3672.00
2017-10-27T09:20:21.023Z,4108.00
2017-10-27T09:21:21.009Z,4400.00
2017-10-27T09:22:21.032Z,4664.00
2017-10-27T09:23:21.036Z,4628.00
2017-10-27T09:24:21.050Z,5240.00
2017-10-27T09:25:21.032Z,5652.00
2017-10-27T09:26:21.056Z,5112.00
2017-10-27T09:27:21.062Z,5440.00
2017-10-27T09:28:21.060Z,5244.00
2017-10-27T09:29:21.060Z,5524.00
2017-10-27T09:30:21.102Z,4900.00
2017-10-27T09:31:21.082Z,4220.00
2017-10-27T09:32:21.109Z,4524.00
2017-10-27T09:33:21.086Z,4432.00
2017-10-27T09:34:21.099Z,4296.00
2017-10-27T09:35:21.113Z,4116.00
2017-10-27T09:36:21.121Z,4288.00
2017-10-27T09:37:21.133Z,4496.00
2017-10-27T09:38:21.150Z,4224.00
2017-10-27T09:39:21.145Z,4892.00
2017-10-27T09:40:21.155Z,5772.00
2017-10-27T09:41:21.149Z,6916.00
2017-10-27T09:42:21.183Z,5740.00
2017-10-27T09:43:21.161Z,5548.00
2017-10-27T09:44:21.204Z,4820.00
2017-10-27T09:45:21.213Z,4508.00
2017-10-27T09:46:21.230Z,4852.00
2017-10-27T09:47:21.187Z,4428.00
2017-10-27T09:48:21.207Z,4812.00
2017-10-27T09:49:21.216Z,4960.00
2017-10-27T09:50:21.250Z,5308.00
2017-10-27T09:51:21.285Z,5764.00
2017-10-27T09:52:21.255Z,5420.00
2017-10-27T09:53:21.239Z,4776.00
2017-10-27T09:54:21.248Z,5360.00
2017-10-27T09:55:21.298Z,4792.00
2017-10-27T09:56:21.287Z,4612.00
2017-10-27T09:57:21.292Z,5524.00
2017-10-27T09:58:21.299Z,6212.00
2017-10-27T09:59:21.290Z,6580.00
2017-10-27T10:00:21.323Z,5908.00
2017-10-27T10:01:21.306Z,7076.00
2017-10-27T10:02:21.334Z,7980.00
2017-10-27T10:03:21.314Z,7256.00
2017-10-27T10:04:21.324Z,6372.00
2017-10-27T10:05:21.343Z,5064.00
2017-10-27T10:06:21.341Z,4728.00
2017-10-27T10:07:21.349Z,5648.00
2017-10-27T10:08:21.350Z,6448.00
2017-10-27T10:09:21.382Z,5508.00
2017-10-27T10:10:21.577Z,5868.00
2017-10-27T10:11:21.366Z,5360.00
2017-10-27T10:12:21.381Z,4360.00
2017-10-27T10:13:21.388Z,4712.00
2017-10-27T10:14:21.413Z,5584.00
2017-10-27T10:15:21.436Z,5608.00
2017-10-27T10:16:21.433Z,5264.00
2017-10-27T10:17:21.418Z,4940.00
2017-10-27T10:18:21.431Z,5596.00
2017-10-27T10:19:21.462Z,5028.00
2017-10-27T10:20:21.444Z,4872.00
2017-10-27T10:21:21.442Z,4636.00
2017-10-27T10:22:21.488Z,4568.00
2017-10-27T10:23:21.464Z,5032.00
2017-10-27T10:24:21.476Z,4832.00
2017-10-27T10:25:21.504Z,5100.00
2017-10-27T10:26:21.495Z,4108.00
2017-10-27T10:27:21.522Z,3712.00
2017-10-27T10:28:21.509Z,3680.00
2017-10-27T10:29:21.521Z,3968.00
2017-10-27T10:30:21.534Z,4728.00
2017-10-27T10:31:21.540Z,5672.00
2017-10-27T10:32:21.552Z,8304.00
2017-10-27T10:33:21.545Z,9280.00
2017-10-27T10:34:21.561Z,10304.00
2017-10-27T10:35:21.559Z,9972.00
2017-10-27T10:36:21.592Z,5164.00
2017-10-27T10:37:21.591Z,4684.00
2017-10-27T10:38:21.586Z,9244.00
2017-10-27T10:39:21.601Z,4580.00
2017-10-27T10:40:21.604Z,4160.00
2017-10-27T10:41:21.595Z,3936.00
2017-10-27T10:42:21.652Z,4084.00
2017-10-27T10:43:21.631Z,3844.00
2017-10-27T10:44:21.640Z,3844.00
2017-10-27T10:45:21.663Z,3688.00
2017-10-27T10:46:21.636Z,3296.00
2017-10-27T10:47:21.641Z,3340.00
2017-10-27T10:48:21.690Z,3340.00
2017-10-27T10:49:21.676Z,3140.00
2017-10-27T10:50:21.699Z,3132.00
2017-10-27T10:51:21.682Z,2808.00
2017-10-27T10:52:21.723Z,2620.00
2017-10-27T10:53:21.681Z,2560.00
2017-10-27T10:54:21.723Z,2324.00
2017-10-27T10:55:21.713Z,3288.00
2017-10-27T10:56:21.712Z,2404.00
2017-10-27T10:57:21.731Z,2480.00
2017-10-27T10:58:21.743Z,2344.00
2017-10-27T10:59:21.753Z,2348.00
2017-10-27T11:00:21.759Z,2568.00
2017-10-27T11:01:21.804Z,2972.00
2017-10-27T11:02:21.767Z,5152.00
2017-10-27T11:03:21.772Z,4772.00
2017-10-27T11:04:21.816Z,5640.00
2017-10-27T11:05:21.789Z,5704.00
2017-10-27T11:06:21.799Z,6036.00
2017-10-27T11:07:21.802Z,6408.00
2017-10-27T11:08:21.802Z,6688.00
2017-10-27T11:09:21.815Z,5804.00
2017-10-27T11:10:21.824Z,5408.00
2017-10-27T11:11:21.833Z,5228.00
2017-10-27T11:12:21.868Z,4960.00
2017-10-27T11:13:21.849Z,4744.00
2017-10-27T11:14:21.872Z,4564.00
2017-10-27T11:15:21.862Z,3624.00
2017-10-27T11:16:21.874Z,3396.00
2017-10-27T11:17:21.921Z,3296.00
2017-10-27T11:18:21.902Z,3192.00
2017-10-27T11:19:21.900Z,3068.00
2017-10-27T11:20:21.956Z,3232.00
2017-10-27T11:21:21.926Z,3520.00
2017-10-27T11:22:21.910Z,3584.00
2017-10-27T11:23:21.952Z,3808.00
2017-10-27T11:24:21.924Z,4160.00
2017-10-27T11:25:21.974Z,3968.00
2017-10-27T11:26:21.937Z,3924.00
2017-10-27T11:27:21.954Z,3440.00
2017-10-27T11:28:21.955Z,3268.00
2017-10-27T11:29:21.960Z,3120.00
2017-10-27T11:30:22.024Z,3068.00
2017-10-27T11:31:21.991Z,3116.00
2017-10-27T11:32:21.987Z,3264.00
2017-10-27T11:33:22.011Z,3588.00
2017-10-27T11:34:22.018Z,3256.00
2017-10-27T11:35:22.003Z,2936.00
2017-10-27T11:36:22.017Z,2996.00
2017-10-27T11:37:22.033Z,3052.00
2017-10-27T11:38:22.044Z,3480.00
2017-10-27T11:39:22.028Z,3264.00
2017-10-27T11:40:22.052Z,3332.00
2017-10-27T11:41:22.074Z,3188.00
2017-10-27T11:42:22.071Z,3068.00
2017-10-27T11:43:22.096Z,3000.00
2017-10-27T11:44:22.075Z,3544.00
2017-10-27T11:45:22.100Z,3488.00
2017-10-27T11:46:22.101Z,3328.00
2017-10-27T11:47:22.115Z,3280.00
2017-10-27T11:48:22.126Z,3192.00
2017-10-27T11:49:22.125Z,3116.00
2017-10-27T11:50:22.118Z,3088.00
2017-10-27T11:51:22.136Z,3104.00
2017-10-27T11:52:22.129Z,3152.00
2017-10-27T11:53:22.174Z,3236.00
2017-10-27T11:54:22.167Z,3336.00
2017-10-27T11:55:22.164Z,3476.00
2017-10-27T11:56:22.172Z,3724.00
2017-10-27T11:57:22.180Z,4244.00
2017-10-27T11:58:22.190Z,4956.00
2017-10-27T11:59:22.186Z,5140.00
2017-10-27T12:00:22.195Z,4936.00
2017-10-27T12:01:22.219Z,5008.00
2017-10-27T12:02:22.236Z,5152.00
2017-10-27T12:03:22.220Z,5048.00
2017-10-27T12:04:22.255Z,4364.00
2017-10-27T12:05:22.243Z,4168.00
2017-10-27T12:06:22.245Z,3564.00
2017-10-27T12:07:22.243Z,3332.00
2017-10-27T12:08:22.246Z,3288.00
2017-10-27T12:09:22.263Z,3488.00
2017-10-27T12:10:22.277Z,3660.00
2017-10-27T12:11:22.285Z,3676.00
2017-10-27T12:12:22.291Z,3800.00
2017-10-27T12:13:22.289Z,3980.00
2017-10-27T12:14:22.300Z,3776.00
2017-10-27T12:15:22.306Z,3784.00
2017-10-27T12:16:22.321Z,3824.00
2017-10-27T12:17:22.347Z,4028.00
2017-10-27T12:18:22.322Z,4096.00
2017-10-27T12:19:22.351Z,4000.00
2017-10-27T12:20:22.348Z,4012.00
2017-10-27T12:21:22.344Z,3996.00
2017-10-27T12:22:22.357Z,3776.00
2017-10-27T12:23:22.366Z,3532.00
2017-10-27T12:24:22.380Z,3272.00
2017-10-27T12:25:22.391Z,3052.00
2017-10-27T12:26:22.390Z,2936.00
2017-10-27T12:27:22.420Z,2896.00
2017-10-27T12:28:22.440Z,2860.00
2017-10-27T12:29:22.422Z,2968.00
2017-10-27T12:30:22.427Z,3008.00
2017-10-27T12:31:22.445Z,3032.00
2017-10-27T12:32:22.462Z,3020.00
2017-10-27T12:33:22.475Z,3008.00
2017-10-27T12:34:22.466Z,2984.00
2017-10-27T12:35:22.512Z,2904.00
2017-10-27T12:36:22.498Z,2708.00
2017-10-27T12:37:22.541Z,2580.00
2017-10-27T12:38:22.498Z,2556.00
2017-10-27T12:39:22.511Z,2552.00
2017-10-27T12:40:22.541Z,2740.00
2017-10-27T12:41:22.537Z,2960.00
2017-10-27T12:42:22.539Z,3184.00
2017-10-27T12:43:22.582Z,3340.00